createdAt,value
2022-12-01T00:06:33.754Z,-23.3
2022-12-01T00:11:44.124Z,-24.1
2022-12-01T00:22:22.626Z,-23.8
2022-12-01T00:27:41.945Z,-23.9
2022-12-01T00:38:21.248Z,-23.5
2022-12-01T00:43:40.726Z,-23.4
2022-12-01T00:48:59.671Z,-23.5
2022-12-01T00:54:18.995Z,-23.6
2022-12-01T01:04:56.778Z,-24.7
2022-12-01T01:10:15.836Z,-23.6
2022-12-01T01:15:35.291Z,-23.8
2022-12-01T01:20:55.209Z,-24
2022-12-01T01:26:14.277Z,-24.1
2022-12-01T01:31:34.055Z,-24.8
2022-12-01T01:36:53.379Z,-23.6
2022-12-01T01:42:12.878Z,-23.7
2022-12-01T01:47:31.962Z,-23.9
2022-12-01T01:52:51.280Z,-23.5
2022-12-01T02:03:30.255Z,-23.7
2022-12-01T02:08:49.406Z,-23.5
2022-12-01T02:14:08.895Z,-23.5
2022-12-01T02:24:47.538Z,-24.1
2022-12-01T02:30:07.325Z,-23.7
2022-12-01T02:40:45.724Z,-23.9
2022-12-01T02:46:05.352Z,-24.2
2022-12-01T02:56:44.113Z,-25.8
2022-12-01T03:02:03.759Z,-23.8
2022-12-01T03:07:23.029Z,-24
2022-12-01T03:12:41.906Z,-23.9
2022-12-01T03:23:20.325Z,-23.6
2022-12-01T03:28:39.667Z,-24.3
2022-12-01T03:33:59.298Z,-23.7
2022-12-01T03:39:19.039Z,-23.3
2022-12-01T03:44:38.427Z,-23.6
2022-12-01T03:49:58.210Z,-23.7
2022-12-01T03:55:18.153Z,-23.7
2022-12-01T04:00:37.267Z,-28
2022-12-01T04:05:56.437Z,-24
2022-12-01T04:11:15.615Z,-24.1
2022-12-01T04:21:55.027Z,-23.7
2022-12-01T04:27:14.327Z,-23.8
2022-12-01T04:32:33.746Z,-25.9
2022-12-01T04:37:53.215Z,-23.8
2022-12-01T04:43:12.735Z,-23.8
2022-12-01T04:48:31.925Z,-23.8
2022-12-01T04:53:51.597Z,-23.9
2022-12-01T05:04:29.517Z,-23.7
2022-12-01T05:09:49.424Z,-23.8
2022-12-01T05:15:08.788Z,-23.8
2022-12-01T05:20:28.011Z,-24.2
2022-12-01T05:25:47.101Z,-23.8
2022-12-01T05:31:06.457Z,-23.8
2022-12-01T05:36:50.358Z,-23.5
2022-12-01T05:42:09.226Z,-23.8
2022-12-01T05:47:28.195Z,-25.5
2022-12-01T05:52:47.127Z,-23.6
2022-12-01T05:58:05.963Z,-23.5
2022-12-01T06:03:25.383Z,-24.4
2022-12-01T06:08:44.353Z,-23.9
2022-12-01T06:19:23.221Z,-23.8
2022-12-01T06:24:50.746Z,-23.7
2022-12-01T06:30:02.094Z,-24
2022-12-01T06:35:21.402Z,-23.8
2022-12-01T06:46:01.879Z,-24.1
2022-12-01T06:51:19.042Z,-23.8
2022-12-01T07:01:58.533Z,-24.2
2022-12-01T07:07:18.024Z,-24.5
2022-12-01T07:12:37.448Z,-24.4
2022-12-01T07:17:57.128Z,-24.2
2022-12-01T07:23:16.731Z,-24.5
2022-12-01T07:28:35.842Z,-24
2022-12-01T07:33:54.925Z,-23.5
2022-12-01T07:39:14.010Z,-24.2
2022-12-01T07:44:33.324Z,-20.2
2022-12-01T07:49:52.626Z,-19.1
2022-12-01T07:55:12.069Z,-15.8
2022-12-01T08:00:31.346Z,-12.9
2022-12-01T08:05:51.031Z,-11.5
2022-12-01T08:11:10.682Z,-8.6
2022-12-01T08:16:30.424Z,-6.2
2022-12-01T08:27:08.160Z,-2.09
2022-12-01T08:32:27.688Z,-1.4
2022-12-01T08:43:06.606Z,2.9
2022-12-01T08:48:26.254Z,6.3
2022-12-01T08:53:45.848Z,11.1
2022-12-01T08:59:04.777Z,11.2
2022-12-01T09:04:24.309Z,14.8
2022-12-01T09:09:43.269Z,17.5
2022-12-01T09:20:22.151Z,24.8
2022-12-01T09:25:41.203Z,24.9
2022-12-01T09:31:00.968Z,32.5
2022-12-01T09:36:19.834Z,56.2
2022-12-01T09:41:38.764Z,54.4
2022-12-01T09:46:58.037Z,24.6
2022-12-01T09:52:17.045Z,20.2
2022-12-01T10:02:56.343Z,56.1
2022-12-01T10:08:15.752Z,79.1
2022-12-01T10:13:35.335Z,81.9
2022-12-01T10:18:54.838Z,79.69
2022-12-01T10:29:32.595Z,133.6
2022-12-01T10:34:51.909Z,253.5
2022-12-01T10:45:30.860Z,41.2
2022-12-01T10:50:50.232Z,50.6
2022-12-01T10:56:09.861Z,97.2
2022-12-01T11:01:28.780Z,103.8
2022-12-01T11:12:08.350Z,140.89
2022-12-01T11:17:27.486Z,286.6
2022-12-01T11:28:05.680Z,86.8
2022-12-01T11:33:25.235Z,90.2
2022-12-01T11:44:04.185Z,134.6
2022-12-01T11:49:22.361Z,149.1
2022-12-01T11:54:41.360Z,143.1
2022-12-01T12:00:01.060Z,301.5
2022-12-01T12:05:20.251Z,-147.06
2022-12-01T12:10:39.405Z,-242.86
2022-12-01T12:15:59.330Z,118.3
2022-12-01T12:26:37.879Z,101.7
2022-12-01T12:31:57.447Z,93.6
2022-12-01T12:37:17.555Z,79.3
2022-12-01T12:42:35.997Z,75.3
2022-12-01T12:47:55.203Z,91.3
2022-12-01T12:53:14.954Z,60.2
2022-12-01T12:58:33.755Z,66.4
2022-12-01T13:09:11.913Z,56.9
2022-12-01T13:14:30.688Z,69.6
2022-12-01T13:19:49.540Z,60.8
2022-12-01T13:25:09.023Z,56.9
2022-12-01T13:35:52.936Z,29.5
2022-12-01T13:41:07.016Z,28.6
2022-12-01T13:51:45.426Z,18.5
2022-12-01T13:57:05.136Z,15.8
2022-12-01T14:07:43.843Z,7.8
2022-12-01T14:13:02.683Z,0.8
2022-12-01T14:18:21.758Z,-5.1
2022-12-01T14:23:41.391Z,-8.89
2022-12-01T14:29:00.887Z,-10.7
2022-12-01T14:34:20.600Z,-14.8
2022-12-01T14:39:40.384Z,-14
2022-12-01T14:50:18.210Z,-24.5
2022-12-01T14:55:37.026Z,-25.4
2022-12-01T15:00:56.640Z,-24.6
2022-12-01T15:06:15.576Z,-24.9
2022-12-01T15:11:34.790Z,-25.5
2022-12-01T15:16:53.726Z,-26.1
2022-12-01T15:22:13.121Z,-24.3
2022-12-01T15:27:32.510Z,-24.1
2022-12-01T15:32:51.474Z,-24.3
2022-12-01T15:43:30.294Z,-24.2
2022-12-01T15:54:09.614Z,-24.1
2022-12-01T15:59:28.800Z,-23.9
2022-12-01T16:10:07.554Z,-23.7
2022-12-01T16:15:26.439Z,-24.6
2022-12-01T16:26:04.842Z,-24.1
2022-12-01T16:31:24.410Z,-24.6
2022-12-01T16:36:43.451Z,-24.4
2022-12-01T16:42:02.449Z,-23.9
2022-12-01T16:52:45.176Z,-24.2
2022-12-01T16:58:00.725Z,-24.4
2022-12-01T17:08:40.751Z,-24.3
2022-12-01T17:13:59.130Z,-24.5
2022-12-01T17:19:19.072Z,-24.5
2022-12-01T17:24:37.954Z,-24.2
2022-12-01T17:29:57.380Z,-23.8
2022-12-01T17:35:16.474Z,-24.9
2022-12-01T17:40:35.544Z,-24.4
2022-12-01T17:51:14.128Z,-24.2
2022-12-01T17:56:33.333Z,-24
2022-12-01T18:01:52.900Z,-24.4
2022-12-01T18:07:12.124Z,-24.1
2022-12-01T18:17:50.259Z,-23.7
2022-12-01T18:23:09.719Z,-24.6
2022-12-01T18:33:47.550Z,-28.1
2022-12-01T18:39:07.199Z,-24.4
2022-12-01T18:44:26.683Z,-24.4
2022-12-01T18:49:46.058Z,-24
2022-12-01T18:55:05.249Z,-23.5
2022-12-01T19:00:24.663Z,-24.6
2022-12-01T19:05:44.077Z,-24.2
2022-12-01T19:11:02.820Z,-24.4
2022-12-01T19:16:29.965Z,-24
2022-12-01T19:21:40.800Z,-25
2022-12-01T19:32:19.509Z,-24.7
2022-12-01T19:37:38.904Z,-24.3
2022-12-01T19:42:58.313Z,-24.4
2022-12-01T19:48:18.059Z,-24.7
2022-12-01T19:53:37.578Z,-24.5
2022-12-01T19:58:56.532Z,-27.6
2022-12-01T20:04:16.314Z,-24.5
2022-12-01T20:14:55.342Z,-24.1
2022-12-01T20:20:14.657Z,-24
2022-12-01T20:30:52.841Z,-23.6
2022-12-01T20:41:31.441Z,-23.6
2022-12-01T20:46:51.174Z,-28.2
2022-12-01T20:57:29.343Z,-23.6
2022-12-01T21:02:49.032Z,-24.1
2022-12-01T21:13:27.851Z,-24.6
2022-12-01T21:18:46.995Z,-23.7
2022-12-01T21:24:05.890Z,-23.8
2022-12-01T21:29:25.297Z,-24.4
2022-12-01T21:40:03.976Z,-23.4
2022-12-01T21:45:23.117Z,-23.9
2022-12-01T21:56:02.120Z,-23.9
2022-12-01T22:01:21.288Z,-23.8
2022-12-01T22:11:59.762Z,-23.7
2022-12-01T22:22:38.860Z,-27
2022-12-01T22:27:57.421Z,-24.3
2022-12-01T22:33:17.167Z,-28.2
2022-12-01T22:38:37.220Z,-23.9
2022-12-01T22:43:56.528Z,-24.3
2022-12-01T22:49:16.298Z,-23.6
2022-12-01T22:59:54.966Z,-23.7
2022-12-01T23:05:15.433Z,-23.6
2022-12-01T23:15:53.118Z,-24.4
2022-12-01T23:21:37.875Z,-23.8
2022-12-01T23:32:16.386Z,-23.9
2022-12-01T23:37:35.643Z,-24.1
2022-12-01T23:42:54.843Z,-23.6
2022-12-01T23:48:14.554Z,-24.3
2022-12-01T23:53:34.150Z,-24.3
2022-12-01T23:58:53.108Z,-23.8
